Time,TemperatureF,DewpointF,PressureIn,WindDirection,WindDirectionDegrees,WindSpeedMPH,WindSpeedGustMPH,Humidity,HourlyPrecipIn,Conditions,Clouds,dailyrainin,SoftwareType,DateUTC
2017-10-16 00:01:00,79.3,74.7,29.94,WNW,298,1.2,0.0,86,0.00,CLR,,0.00,WeatherDisplay:10.37,2017-10-16 04:01:00,
2017-10-16 00:06:00,79.3,74.7,29.94,WNW,298,0.0,0.0,86,0.00,CLR,,0.00,WeatherDisplay:10.37,2017-10-16 04:06:00,
2017-10-16 00:11:00,79.3,74.7,29.94,WNW,298,0.0,0.0,86,0.00,CLR,,0.00,WeatherDisplay:10.37,2017-10-16 04:11:00,
2017-10-16 00:16:00,79.2,74.6,29.94,WNW,298,0.0,0.0,86,0.00,CLR,,0.00,WeatherDisplay:10.37,2017-10-16 04:16:00,
2017-10-16 00:21:00,79.2,74.3,29.94,WNW,298,0.0,0.0,85,0.00,CLR,,0.00,WeatherDisplay:10.37,2017-10-16 04:21:00,
2017-10-16 00:24:00,79.2,74.3,29.94,WNW,298,0.0,0.0,85,0.00,CLR,,0.00,WeatherDisplay:10.37,2017-10-16 04:24:00,
2017-10-16 00:29:00,79.2,74.3,29.94,WNW,298,0.0,0.0,85,0.00,CLR,,0.00,WeatherDisplay:10.37,2017-10-16 04:29:00,
2017-10-16 00:34:00,79.2,74.3,29.94,WNW,298,0.0,0.0,85,0.00,CLR,,0.00,WeatherDisplay:10.37,2017-10-16 04:34:00,
2017-10-16 00:39:00,79.3,74.4,29.93,WNW,298,0.0,0.0,85,0.00,CLR,,0.00,WeatherDisplay:10.37,2017-10-16 04:39:00,
2017-10-16 00:44:00,79.4,74.5,29.93,WNW,298,0.0,0.0,85,0.00,CLR,,0.00,WeatherDisplay:10.37,2017-10-16 04:44:00,
2017-10-16 00:49:00,79.5,74.6,29.93,WNW,298,0.0,0.0,85,0.00,CLR,,0.00,WeatherDisplay:10.37,2017-10-16 04:49:00,
2017-10-16 00:54:00,79.5,74.9,29.93,WNW,298,0.0,0.0,86,0.00,CLR,,0.00,WeatherDisplay:10.37,2017-10-16 04:54:00,
2017-10-16 00:59:00,79.5,74.9,29.93,WNW,298,0.0,0.0,86,0.00,CLR,,0.00,WeatherDisplay:10.37,2017-10-16 04:59:00,
2017-10-16 01:04:00,79.4,74.8,29.93,WNW,298,0.0,0.0,86,0.00,CLR,,0.00,WeatherDisplay:10.37,2017-10-16 05:04:00,
2017-10-16 01:09:00,79.2,74.6,29.92,WNW,298,0.0,0.0,86,0.00,CLR,,0.00,WeatherDisplay:10.37,2017-10-16 05:09:00,
2017-10-16 01:12:00,79.1,74.5,29.92,WNW,298,0.0,0.0,86,0.00,CLR,,0.00,WeatherDisplay:10.37,2017-10-16 05:12:00,
2017-10-16 01:17:00,79.0,74.5,29.92,WNW,298,0.0,0.0,86,0.00,CLR,,0.00,WeatherDisplay:10.37,2017-10-16 05:17:00,
2017-10-16 01:22:00,78.9,74.4,29.92,WNW,298,0.0,0.0,86,0.00,CLR,,0.00,WeatherDisplay:10.37,2017-10-16 05:22:00,
2017-10-16 01:27:00,78.8,74.3,29.92,WNW,298,0.0,0.0,86,0.00,CLR,,0.00,WeatherDisplay:10.37,2017-10-16 05:27:00,
2017-10-16 01:32:00,78.8,74.3,29.92,WNW,298,0.0,0.0,86,0.00,CLR,,0.00,WeatherDisplay:10.37,2017-10-16 05:32:00,
2017-10-16 01:37:00,78.8,74.3,29.92,WNW,298,0.0,0.0,86,0.00,CLR,,0.00,WeatherDisplay:10.37,2017-10-16 05:37:00,
2017-10-16 01:42:00,78.7,74.2,29.92,WNW,298,0.0,0.0,86,0.00,CLR,,0.00,WeatherDisplay:10.37,2017-10-16 05:42:00,
2017-10-16 01:47:00,78.7,74.2,29.92,WNW,298,0.0,0.0,86,0.00,CLR,,0.00,WeatherDisplay:10.37,2017-10-16 05:47:00,
2017-10-16 01:52:00,78.7,74.5,29.92,WNW,298,0.0,0.0,87,0.00,CLR,,0.00,WeatherDisplay:10.37,2017-10-16 05:52:00,
2017-10-16 01:57:00,78.7,74.2,29.92,WNW,298,0.0,0.0,86,0.00,CLR,,0.00,WeatherDisplay:10.37,2017-10-16 05:57:00,
2017-10-16 02:02:00,78.7,74.2,29.92,WNW,298,0.0,0.0,86,0.00,CLR,,0.00,WeatherDisplay:10.37,2017-10-16 06:02:00,
2017-10-16 02:07:00,78.6,74.1,29.91,WNW,298,0.0,0.0,86,0.00,CLR,,0.00,WeatherDisplay:10.37,2017-10-16 06:07:00,
2017-10-16 02:12:00,78.5,74.3,29.91,WNW,298,0.0,0.0,87,0.00,CLR,,0.00,WeatherDisplay:10.37,2017-10-16 06:12:00,
2017-10-16 02:17:00,78.5,74.3,29.91,WNW,298,0.0,0.0,87,0.00,CLR,,0.00,WeatherDisplay:10.37,2017-10-16 06:17:00,
2017-10-16 02:22:00,78.5,74.3,29.91,WNW,298,0.0,0.0,87,0.00,CLR,,0.00,WeatherDisplay:10.37,2017-10-16 06:22:00,
2017-10-16 02:27:00,78.5,74.3,29.91,WNW,298,0.0,0.0,87,0.00,CLR,,0.00,WeatherDisplay:10.37,2017-10-16 06:27:00,
2017-10-16 02:32:00,78.4,74.5,29.91,WNW,298,0.0,0.0,88,0.00,CLR,,0.00,WeatherDisplay:10.37,2017-10-16 06:32:00,
2017-10-16 02:37:00,78.4,74.5,29.91,WNW,298,0.0,0.0,88,0.00,CLR,,0.00,WeatherDisplay:10.37,2017-10-16 06:37:00,
2017-10-16 02:42:00,78.3,74.5,29.90,WNW,298,0.0,0.0,88,0.00,CLR,,0.00,WeatherDisplay:10.37,2017-10-16 06:42:00,
2017-10-16 02:47:00,78.3,74.5,29.90,WNW,298,0.0,0.0,88,0.00,CLR,,0.00,WeatherDisplay:10.37,2017-10-16 06:47:00,
2017-10-16 02:52:00,78.2,74.4,29.90,WNW,298,0.0,0.0,88,0.00,CLR,,0.00,WeatherDisplay:10.37,2017-10-16 06:52:00,
2017-10-16 02:57:00,78.2,74.4,29.90,WNW,298,0.0,0.0,88,0.00,CLR,,0.00,WeatherDisplay:10.37,2017-10-16 06:57:00,
2017-10-16 03:02:00,78.0,74.2,29.89,WNW,298,0.0,0.0,88,0.00,CLR,,0.00,WeatherDisplay:10.37,2017-10-16 07:02:00,
2017-10-16 03:07:00,78.0,74.5,29.89,WNW,298,0.0,0.0,89,0.00,CLR,,0.00,WeatherDisplay:10.37,2017-10-16 07:07:00,
2017-10-16 03:12:00,77.9,74.1,29.89,WNW,298,0.0,0.0,88,0.00,CLR,,0.00,WeatherDisplay:10.37,2017-10-16 07:12:00,
2017-10-16 03:17:00,77.9,74.4,29.89,WNW,298,0.0,0.0,89,0.00,CLR,,0.00,WeatherDisplay:10.37,2017-10-16 07:17:00,
2017-10-16 03:22:00,77.8,74.3,29.89,WNW,298,0.0,0.0,89,0.00,CLR,,0.00,WeatherDisplay:10.37,2017-10-16 07:22:00,
2017-10-16 03:27:00,77.8,74.3,29.89,WNW,298,0.0,0.0,89,0.00,CLR,,0.00,WeatherDisplay:10.37,2017-10-16 07:27:00,
2017-10-16 03:32:00,77.7,74.2,29.89,WNW,298,0.0,0.0,89,0.00,CLR,,0.00,WeatherDisplay:10.37,2017-10-16 07:32:00,
2017-10-16 03:37:00,77.6,74.1,29.89,WNW,298,0.0,0.0,89,0.00,CLR,,0.00,WeatherDisplay:10.37,2017-10-16 07:37:00,
2017-10-16 03:42:00,77.5,74.0,29.89,WNW,298,0.0,0.0,89,0.00,CLR,,0.00,WeatherDisplay:10.37,2017-10-16 07:42:00,
2017-10-16 03:47:00,77.4,74.2,29.89,WNW,298,0.0,0.0,90,0.00,CLR,,0.00,WeatherDisplay:10.37,2017-10-16 07:47:00,
2017-10-16 03:52:00,77.4,74.2,29.89,WNW,298,0.0,0.0,90,0.00,CLR,,0.00,WeatherDisplay:10.37,2017-10-16 07:52:00,
2017-10-16 03:57:00,77.2,74.0,29.89,WNW,298,0.0,0.0,90,0.00,CLR,,0.00,WeatherDisplay:10.37,2017-10-16 07:57:00,
2017-10-16 04:02:00,77.1,74.3,29.89,WNW,298,0.0,0.0,91,0.00,CLR,,0.00,WeatherDisplay:10.37,2017-10-16 08:02:00,
2017-10-16 04:07:00,77.0,74.2,29.89,WNW,298,0.0,0.0,91,0.00,CLR,,0.00,WeatherDisplay:10.37,2017-10-16 08:07:00,
2017-10-16 04:12:00,77.1,74.6,29.88,WNW,298,0.0,0.0,92,0.00,CLR,,0.00,WeatherDisplay:10.37,2017-10-16 08:12:00,
2017-10-16 04:17:00,77.1,74.6,29.88,WNW,298,0.0,0.0,92,0.00,CLR,,0.00,WeatherDisplay:10.37,2017-10-16 08:17:00,
2017-10-16 04:22:00,76.9,74.4,29.88,WNW,298,0.0,0.0,92,0.00,CLR,,0.00,WeatherDisplay:10.37,2017-10-16 08:22:00,
2017-10-16 04:27:00,76.9,74.4,29.88,WNW,298,0.0,0.0,92,0.00,CLR,,0.00,WeatherDisplay:10.37,2017-10-16 08:27:00,
2017-10-16 04:32:00,76.9,74.7,29.88,WNW,298,0.0,0.0,93,0.00,CLR,,0.00,WeatherDisplay:10.37,2017-10-16 08:32:00,
2017-10-16 04:37:00,76.9,74.7,29.88,WNW,298,0.0,0.0,93,0.00,CLR,,0.00,WeatherDisplay:10.37,2017-10-16 08:37:00,
2017-10-16 04:42:00,76.7,74.5,29.88,WNW,298,0.0,0.0,93,0.00,CLR,,0.00,WeatherDisplay:10.37,2017-10-16 08:42:00,
2017-10-16 04:47:00,76.7,74.5,29.88,WNW,298,0.0,0.0,93,0.00,CLR,,0.00,WeatherDisplay:10.37,2017-10-16 08:47:00,
2017-10-16 04:52:00,76.8,74.6,29.88,WNW,298,0.0,0.0,93,0.00,CLR,,0.00,WeatherDisplay:10.37,2017-10-16 08:52:00,
2017-10-16 04:57:00,76.7,74.5,29.88,WNW,298,0.0,0.0,93,0.00,CLR,,0.00,WeatherDisplay:10.37,2017-10-16 08:57:00,
2017-10-16 05:02:00,76.6,74.4,29.88,WNW,298,0.0,0.0,93,0.00,CLR,,0.00,WeatherDisplay:10.37,2017-10-16 09:02:00,
2017-10-16 05:07:00,76.6,74.7,29.88,WNW,298,0.0,0.0,94,0.00,CLR,,0.00,WeatherDisplay:10.37,2017-10-16 09:07:00,
2017-10-16 05:10:00,76.7,74.8,29.87,WNW,298,0.0,0.0,94,0.00,CLR,,0.00,WeatherDisplay:10.37,2017-10-16 09:10:00,
2017-10-16 05:15:00,76.7,74.8,29.87,WNW,298,0.0,0.0,94,0.00,CLR,,0.00,WeatherDisplay:10.37,2017-10-16 09:15:00,
2017-10-16 05:20:00,76.6,74.7,29.87,WNW,298,0.0,0.0,94,0.00,CLR,,0.00,WeatherDisplay:10.37,2017-10-16 09:20:00,
2017-10-16 05:21:00,76.5,74.6,29.87,WNW,298,0.0,0.0,94,0.00,CLR,,0.00,WeatherDisplay:10.37,2017-10-16 09:21:00,
2017-10-16 05:26:00,76.3,74.4,29.88,WNW,298,0.0,0.0,94,0.00,CLR,,0.00,WeatherDisplay:10.37,2017-10-16 09:26:00,
2017-10-16 05:31:00,76.2,74.3,29.88,WNW,298,0.0,0.0,94,0.00,CLR,,0.00,WeatherDisplay:10.37,2017-10-16 09:31:00,
2017-10-16 05:36:00,76.2,74.3,29.88,WNW,298,0.0,0.0,94,0.00,CLR,,0.00,WeatherDisplay:10.37,2017-10-16 09:36:00,
2017-10-16 05:41:00,76.2,74.3,29.89,WNW,298,0.0,0.0,94,0.00,CLR,,0.00,WeatherDisplay:10.37,2017-10-16 09:41:00,
2017-10-16 05:46:00,76.1,74.2,29.89,WNW,298,0.0,0.0,94,0.00,CLR,,0.00,WeatherDisplay:10.37,2017-10-16 09:46:00,
2017-10-16 05:51:00,75.9,74.0,29.89,WNW,298,0.0,0.0,94,0.00,CLR,,0.00,WeatherDisplay:10.37,2017-10-16 09:51:00,
2017-10-16 05:57:00,75.8,73.9,29.89,WNW,298,0.0,0.0,94,0.00,CLR,,0.00,WeatherDisplay:10.37,2017-10-16 09:57:00,
2017-10-16 06:02:00,75.9,74.4,29.89,WNW,298,0.0,0.0,95,0.00,CLR,,0.00,WeatherDisplay:10.37,2017-10-16 10:02:00,
2017-10-16 06:07:00,75.8,73.9,29.89,WNW,298,0.0,0.0,94,0.00,CLR,,0.00,WeatherDisplay:10.37,2017-10-16 10:07:00,
2017-10-16 06:12:00,75.7,73.8,29.89,WNW,298,0.0,0.0,94,0.00,CLR,,0.00,WeatherDisplay:10.37,2017-10-16 10:12:00,
2017-10-16 06:17:00,75.6,74.1,29.89,WNW,298,0.0,0.0,95,0.00,CLR,,0.00,WeatherDisplay:10.37,2017-10-16 10:17:00,
2017-10-16 06:22:00,75.5,73.7,29.89,WNW,298,0.0,0.0,94,0.00,CLR,,0.00,WeatherDisplay:10.37,2017-10-16 10:22:00,
2017-10-16 06:27:00,75.5,73.7,29.89,WNW,298,0.0,0.0,94,0.00,CLR,,0.00,WeatherDisplay:10.37,2017-10-16 10:27:00,
2017-10-16 06:32:00,75.5,74.0,29.90,WNW,298,0.0,0.0,95,0.00,CLR,,0.00,WeatherDisplay:10.37,2017-10-16 10:32:00,
2017-10-16 06:37:00,75.4,73.9,29.90,WNW,298,0.0,0.0,95,0.00,CLR,,0.00,WeatherDisplay:10.37,2017-10-16 10:37:00,
2017-10-16 06:42:00,75.4,73.9,29.90,WNW,298,0.0,0.0,95,0.00,CLR,,0.00,WeatherDisplay:10.37,2017-10-16 10:42:00,
2017-10-16 06:47:00,75.3,73.8,29.90,WNW,298,0.0,0.0,95,0.00,CLR,,0.00,WeatherDisplay:10.37,2017-10-16 10:47:00,
2017-10-16 06:52:00,75.3,73.8,29.90,WNW,298,0.0,0.0,95,0.00,CLR,,0.00,WeatherDisplay:10.37,2017-10-16 10:52:00,
2017-10-16 06:57:00,75.2,73.7,29.90,WNW,298,0.0,0.0,95,0.00,CLR,,0.00,WeatherDisplay:10.37,2017-10-16 10:57:00,
2017-10-16 07:02:00,75.1,73.6,29.90,WNW,298,0.0,0.0,95,0.00,CLR,,0.00,WeatherDisplay:10.37,2017-10-16 11:02:00,
2017-10-16 07:07:00,75.2,73.7,29.90,WNW,298,0.0,0.0,95,0.00,CLR,,0.00,WeatherDisplay:10.37,2017-10-16 11:07:00,
2017-10-16 07:12:00,75.2,73.7,29.91,WNW,298,0.0,0.0,95,0.00,CLR,,0.00,WeatherDisplay:10.37,2017-10-16 11:12:00,
2017-10-16 07:17:00,75.5,74.0,29.91,WNW,298,0.0,0.0,95,0.00,CLR,,0.00,WeatherDisplay:10.37,2017-10-16 11:17:00,
2017-10-16 07:22:00,75.7,74.2,29.91,WNW,298,0.0,0.0,95,0.00,CLR,,0.00,WeatherDisplay:10.37,2017-10-16 11:22:00,
2017-10-16 07:27:00,76.0,74.5,29.91,WNW,298,0.0,0.0,95,0.00,CLR,,0.00,WeatherDisplay:10.37,2017-10-16 11:27:00,
2017-10-16 07:32:00,76.0,74.5,29.91,WNW,298,0.0,0.0,95,0.00,CLR,,0.00,WeatherDisplay:10.37,2017-10-16 11:32:00,
2017-10-16 07:37:00,76.1,74.6,29.91,WNW,298,0.0,0.0,95,0.00,CLR,,0.00,WeatherDisplay:10.37,2017-10-16 11:37:00,
2017-10-16 07:42:00,76.2,74.7,29.91,WNW,298,0.0,0.0,95,0.00,CLR,,0.00,WeatherDisplay:10.37,2017-10-16 11:42:00,
2017-10-16 07:47:00,76.1,74.6,29.91,WNW,298,0.0,0.0,95,0.00,CLR,,0.00,WeatherDisplay:10.37,2017-10-16 11:47:00,
2017-10-16 07:52:00,76.1,74.6,29.92,WNW,298,0.0,0.0,95,0.00,CLR,,0.00,WeatherDisplay:10.37,2017-10-16 11:52:00,
2017-10-16 07:57:00,76.1,74.6,29.92,WNW,298,0.0,0.0,95,0.00,CLR,,0.00,WeatherDisplay:10.37,2017-10-16 11:57:00,
2017-10-16 08:02:00,76.1,74.6,29.92,WNW,298,0.0,0.0,95,0.00,CLR,,0.00,WeatherDisplay:10.37,2017-10-16 12:02:00,
2017-10-16 08:07:00,76.2,74.7,29.92,WNW,298,0.0,0.0,95,0.00,CLR,,0.00,WeatherDisplay:10.37,2017-10-16 12:07:00,
2017-10-16 08:12:00,76.3,75.1,29.92,WNW,298,0.0,0.0,96,0.00,CLR,,0.00,WeatherDisplay:10.37,2017-10-16 12:12:00,
2017-10-16 08:17:00,76.5,75.3,29.93,WNW,298,0.0,0.0,96,0.00,CLR,,0.00,WeatherDisplay:10.37,2017-10-16 12:17:00,
2017-10-16 08:22:00,76.7,75.5,29.93,WNW,298,0.0,0.0,96,0.00,CLR,,0.00,WeatherDisplay:10.37,2017-10-16 12:22:00,
2017-10-16 08:27:00,76.9,75.7,29.94,WNW,298,0.0,0.0,96,0.00,CLR,,0.00,WeatherDisplay:10.37,2017-10-16 12:27:00,
2017-10-16 08:32:00,77.1,75.9,29.93,WNW,298,0.0,0.0,96,0.00,CLR,,0.00,WeatherDisplay:10.37,2017-10-16 12:32:00,
2017-10-16 08:37:00,77.4,76.2,29.94,WNW,298,0.0,0.0,96,0.00,CLR,,0.00,WeatherDisplay:10.37,2017-10-16 12:37:00,
2017-10-16 08:42:00,77.6,76.4,29.94,WNW,298,0.0,0.0,96,0.00,CLR,,0.00,WeatherDisplay:10.37,2017-10-16 12:42:00,
2017-10-16 08:47:00,77.8,76.6,29.94,WNW,298,0.0,0.0,96,0.00,CLR,,0.00,WeatherDisplay:10.37,2017-10-16 12:47:00,
2017-10-16 08:52:00,78.1,76.9,29.94,WNW,298,0.0,0.0,96,0.00,CLR,,0.00,WeatherDisplay:10.37,2017-10-16 12:52:00,
2017-10-16 08:57:00,78.3,77.1,29.94,WNW,298,0.0,0.0,96,0.00,CLR,,0.00,WeatherDisplay:10.37,2017-10-16 12:57:00,
2017-10-16 09:02:00,78.6,77.4,29.94,WNW,298,0.0,0.0,96,0.00,CLR,,0.00,WeatherDisplay:10.37,2017-10-16 13:02:00,
2017-10-16 09:07:00,78.6,77.0,29.95,WNW,298,0.0,0.0,95,0.00,CLR,,0.00,WeatherDisplay:10.37,2017-10-16 13:07:00,
2017-10-16 09:12:00,78.5,76.9,29.95,WNW,298,0.0,0.0,95,0.00,CLR,,0.00,WeatherDisplay:10.37,2017-10-16 13:12:00,
2017-10-16 09:17:00,78.4,76.8,29.95,WNW,298,0.0,0.0,95,0.00,CLR,,0.00,WeatherDisplay:10.37,2017-10-16 13:17:00,
2017-10-16 09:22:00,78.3,76.7,29.95,WNW,298,0.0,0.0,95,0.00,CLR,,0.00,WeatherDisplay:10.37,2017-10-16 13:22:00,
2017-10-16 09:27:00,78.4,76.5,29.95,WNW,298,0.0,0.0,94,0.00,CLR,,0.00,WeatherDisplay:10.37,2017-10-16 13:27:00,
2017-10-16 09:32:00,78.4,76.5,29.95,WNW,298,0.0,0.0,94,0.00,CLR,,0.00,WeatherDisplay:10.37,2017-10-16 13:32:00,
2017-10-16 09:37:00,78.5,76.6,29.95,WNW,298,0.0,0.0,94,0.00,CLR,,0.00,WeatherDisplay:10.37,2017-10-16 13:37:00,
2017-10-16 09:42:00,78.5,76.6,29.95,WNW,298,0.0,0.0,94,0.00,CLR,,0.00,WeatherDisplay:10.37,2017-10-16 13:42:00,
2017-10-16 09:47:00,78.6,76.7,29.95,WNW,298,0.0,0.0,94,0.00,CLR,,0.00,WeatherDisplay:10.37,2017-10-16 13:47:00,
2017-10-16 09:52:00,78.7,76.8,29.95,WNW,298,0.0,0.0,94,0.00,CLR,,0.00,WeatherDisplay:10.37,2017-10-16 13:52:00,
2017-10-16 09:57:00,78.8,76.6,29.95,WNW,298,0.0,0.0,93,0.00,CLR,,0.00,WeatherDisplay:10.37,2017-10-16 13:57:00,
2017-10-16 10:02:00,78.9,76.7,29.95,WNW,298,0.0,0.0,93,0.00,CLR,,0.00,WeatherDisplay:10.37,2017-10-16 14:02:00,
2017-10-16 10:07:00,79.1,76.9,29.95,WNW,298,0.0,0.0,93,0.00,CLR,,0.00,WeatherDisplay:10.37,2017-10-16 14:07:00,
2017-10-16 10:12:00,79.3,77.1,29.95,WNW,298,0.0,0.0,93,0.00,CLR,,0.00,WeatherDisplay:10.37,2017-10-16 14:12:00,
2017-10-16 10:17:00,79.3,76.8,29.95,WNW,298,0.0,0.0,92,0.00,CLR,,0.00,WeatherDisplay:10.37,2017-10-16 14:17:00,
2017-10-16 10:22:00,79.4,76.9,29.95,WNW,298,0.0,0.0,92,0.00,CLR,,0.00,WeatherDisplay:10.37,2017-10-16 14:22:00,
2017-10-16 10:27:00,79.5,77.0,29.95,WNW,298,0.0,0.0,92,0.00,CLR,,0.00,WeatherDisplay:10.37,2017-10-16 14:27:00,
2017-10-16 10:32:00,79.6,77.1,29.95,WNW,298,0.0,0.0,92,0.00,CLR,,0.00,WeatherDisplay:10.37,2017-10-16 14:32:00,
2017-10-16 10:37:00,79.6,76.7,29.95,WNW,298,0.0,0.0,91,0.00,CLR,,0.00,WeatherDisplay:10.37,2017-10-16 14:37:00,
2017-10-16 10:42:00,79.5,76.3,29.95,WNW,298,0.0,0.0,90,0.00,CLR,,0.00,WeatherDisplay:10.37,2017-10-16 14:42:00,
2017-10-16 10:47:00,79.6,76.4,29.95,WNW,298,0.0,0.0,90,0.00,CLR,,0.00,WeatherDisplay:10.37,2017-10-16 14:47:00,
2017-10-16 10:52:00,79.6,76.1,29.95,WNW,298,0.0,0.0,89,0.00,CLR,,0.00,WeatherDisplay:10.37,2017-10-16 14:52:00,
2017-10-16 10:57:00,79.8,76.3,29.95,WNW,298,0.0,0.0,89,0.00,CLR,,0.00,WeatherDisplay:10.37,2017-10-16 14:57:00,
2017-10-16 11:02:00,80.2,76.7,29.95,WNW,298,0.0,0.0,89,0.00,CLR,,0.00,WeatherDisplay:10.37,2017-10-16 15:02:00,
2017-10-16 11:07:00,80.3,76.1,29.95,WNW,298,0.0,0.0,87,0.00,CLR,,0.00,WeatherDisplay:10.37,2017-10-16 15:07:00,
2017-10-16 11:12:00,80.8,76.2,29.95,NW,311,0.0,0.0,86,0.00,CLR,,0.00,WeatherDisplay:10.37,2017-10-16 15:12:00,
2017-10-16 11:17:00,81.1,75.8,29.95,NW,311,0.0,0.0,84,0.00,CLR,,0.00,WeatherDisplay:10.37,2017-10-16 15:17:00,
2017-10-16 11:22:00,81.1,75.8,29.96,NW,310,0.0,0.0,84,0.00,CLR,,0.00,WeatherDisplay:10.37,2017-10-16 15:22:00,
2017-10-16 11:27:00,80.9,76.0,29.96,NW,309,0.0,0.0,85,0.00,CLR,,0.00,WeatherDisplay:10.37,2017-10-16 15:27:00,
2017-10-16 11:32:00,80.8,75.9,29.95,NW,304,0.0,0.0,85,0.00,CLR,,0.00,WeatherDisplay:10.37,2017-10-16 15:32:00,
2017-10-16 11:37:00,81.1,75.8,29.95,SSW,209,0.0,0.0,84,0.00,CLR,,0.00,WeatherDisplay:10.37,2017-10-16 15:37:00,
2017-10-16 11:42:00,81.5,75.8,29.95,SSW,209,0.0,0.0,83,0.00,CLR,,0.00,WeatherDisplay:10.37,2017-10-16 15:42:00,
2017-10-16 11:47:00,81.4,75.7,29.95,SSW,209,0.0,0.0,83,0.00,CLR,,0.00,WeatherDisplay:10.37,2017-10-16 15:47:00,
2017-10-16 11:52:00,81.2,75.5,29.95,SSW,209,0.0,0.0,83,0.00,CLR,,0.00,WeatherDisplay:10.37,2017-10-16 15:52:00,
2017-10-16 11:57:00,81.6,75.9,29.94,SSW,209,0.0,0.0,83,0.00,CLR,,0.00,WeatherDisplay:10.37,2017-10-16 15:57:00,
2017-10-16 12:02:00,81.9,76.2,29.94,WSW,245,0.0,0.0,83,0.00,CLR,,0.00,WeatherDisplay:10.37,2017-10-16 16:02:00,
2017-10-16 12:07:00,82.5,76.4,29.94,WSW,245,0.0,0.0,82,0.00,CLR,,0.00,WeatherDisplay:10.37,2017-10-16 16:07:00,
2017-10-16 12:12:00,82.9,76.5,29.94,NW,319,0.0,0.0,81,0.00,CLR,,0.00,WeatherDisplay:10.37,2017-10-16 16:12:00,
2017-10-16 12:17:00,83.8,77.7,29.93,SW,215,3.5,3.5,82,0.00,CLR,,0.00,WeatherDisplay:10.37,2017-10-16 16:17:00,
2017-10-16 12:22:00,84.4,77.2,29.93,SSW,207,6.9,6.9,79,0.00,CLR,,0.00,WeatherDisplay:10.37,2017-10-16 16:22:00,
2017-10-16 12:27:00,84.5,77.3,29.93,SW,224,9.0,9.0,79,0.00,CLR,,0.00,WeatherDisplay:10.37,2017-10-16 16:27:00,
2017-10-16 12:32:00,84.3,77.1,29.93,SW,217,6.9,6.9,79,0.00,CLR,,0.00,WeatherDisplay:10.37,2017-10-16 16:32:00,
2017-10-16 12:38:00,84.3,77.1,29.92,WNW,290,4.6,4.6,79,0.00,CLR,,0.00,WeatherDisplay:10.37,2017-10-16 16:38:00,
2017-10-16 12:43:00,84.5,77.3,29.93,SW,217,0.0,0.0,79,0.00,CLR,,0.00,WeatherDisplay:10.37,2017-10-16 16:43:00,
2017-10-16 12:48:00,84.5,76.9,29.92,WSW,240,0.0,0.0,78,0.00,CLR,,0.00,WeatherDisplay:10.37,2017-10-16 16:48:00,
2017-10-16 12:53:00,84.7,77.5,29.92,WSW,250,3.5,0.0,79,0.00,CLR,,0.00,WeatherDisplay:10.37,2017-10-16 16:53:00,
2017-10-16 12:58:00,85.4,77.8,29.92,WSW,240,0.0,0.0,78,0.00,CLR,,0.00,WeatherDisplay:10.37,2017-10-16 16:58:00,
2017-10-16 13:03:00,85.7,77.3,29.91,SW,231,0.0,0.0,76,0.00,CLR,,0.00,WeatherDisplay:10.37,2017-10-16 17:03:00,
2017-10-16 13:08:00,86.0,77.1,29.91,SW,231,0.0,0.0,75,0.00,CLR,,0.00,WeatherDisplay:10.37,2017-10-16 17:08:00,
2017-10-16 13:13:00,86.2,76.1,29.91,WSW,250,1.2,1.2,72,0.00,CLR,,0.00,WeatherDisplay:10.37,2017-10-16 17:13:00,
2017-10-16 13:18:00,86.1,75.6,29.90,WSW,250,0.0,0.0,71,0.00,CLR,,0.00,WeatherDisplay:10.37,2017-10-16 17:18:00,
2017-10-16 13:23:00,86.0,75.9,29.90,West,262,3.5,3.5,72,0.00,CLR,,0.00,WeatherDisplay:10.37,2017-10-16 17:23:00,
2017-10-16 13:28:00,85.9,75.8,29.90,West,262,0.0,0.0,72,0.00,CLR,,0.00,WeatherDisplay:10.37,2017-10-16 17:28:00,
2017-10-16 13:33:00,87.3,78.0,29.90,West,268,0.0,0.0,74,0.00,CLR,,0.00,WeatherDisplay:10.37,2017-10-16 17:33:00,
2017-10-16 13:38:00,88.1,77.9,29.89,West,269,0.0,0.0,72,0.00,CLR,,0.00,WeatherDisplay:10.37,2017-10-16 17:38:00,
2017-10-16 13:40:00,88.2,77.6,29.89,West,269,0.0,0.0,71,0.00,CLR,,0.00,WeatherDisplay:10.37,2017-10-16 17:40:00,
2017-10-16 13:50:00,87.2,77.9,29.89,NW,321,0.0,0.0,74,0.00,CLR,,0.00,WeatherDisplay:10.37,2017-10-16 17:50:00,
2017-10-16 13:55:00,86.5,76.8,29.88,NW,321,0.0,0.0,73,0.00,CLR,,0.00,WeatherDisplay:10.37,2017-10-16 17:55:00,
2017-10-16 14:00:00,85.7,76.0,29.88,NW,323,0.0,0.0,73,0.00,CLR,,0.00,WeatherDisplay:10.37,2017-10-16 18:00:00,
2017-10-16 14:05:00,84.8,74.8,29.88,NW,323,0.0,0.0,72,0.00,CLR,,0.00,WeatherDisplay:10.37,2017-10-16 18:05:00,
2017-10-16 14:10:00,84.1,74.5,29.88,NW,323,0.0,0.0,73,0.00,CLR,,0.00,WeatherDisplay:10.37,2017-10-16 18:10:00,
2017-10-16 14:15:00,83.7,74.5,29.88,NW,323,0.0,0.0,74,0.00,CLR,,0.00,WeatherDisplay:10.37,2017-10-16 18:15:00,
2017-10-16 14:20:00,83.8,73.4,29.87,NW,321,0.0,0.0,71,0.00,CLR,,0.00,WeatherDisplay:10.37,2017-10-16 18:20:00,
2017-10-16 14:25:00,84.3,73.4,29.87,NW,323,0.0,0.0,70,0.00,CLR,,0.00,WeatherDisplay:10.37,2017-10-16 18:25:00,
2017-10-16 14:30:00,84.5,73.6,29.87,NNW,329,6.9,6.9,70,0.00,CLR,,0.00,WeatherDisplay:10.37,2017-10-16 18:30:00,
2017-10-16 14:35:00,84.7,73.4,29.87,NNW,329,3.5,3.5,69,0.00,CLR,,0.00,WeatherDisplay:10.37,2017-10-16 18:35:00,
2017-10-16 14:40:00,85.1,73.8,29.87,WSW,246,9.2,9.2,69,0.00,CLR,,0.00,WeatherDisplay:10.37,2017-10-16 18:40:00,
2017-10-16 14:45:00,84.8,73.9,29.87,NW,311,1.2,0.0,70,0.00,CLR,,0.00,WeatherDisplay:10.37,2017-10-16 18:45:00,
2017-10-16 14:50:00,85.1,73.3,29.86,NW,309,3.5,0.0,68,0.00,CLR,,0.00,WeatherDisplay:10.37,2017-10-16 18:50:00,
2017-10-16 14:55:00,85.2,73.4,29.86,NW,308,3.5,3.5,68,0.00,CLR,,0.00,WeatherDisplay:10.37,2017-10-16 18:55:00,
2017-10-16 15:00:00,85.4,73.6,29.86,WNW,300,6.9,6.9,68,0.00,CLR,,0.00,WeatherDisplay:10.37,2017-10-16 19:00:00,
2017-10-16 15:05:00,85.0,72.8,29.86,NW,319,3.5,3.5,67,0.00,CLR,,0.00,WeatherDisplay:10.37,2017-10-16 19:05:00,
2017-10-16 15:07:00,84.8,71.7,29.86,NW,319,3.5,0.0,65,0.00,CLR,,0.00,WeatherDisplay:10.37,2017-10-16 19:07:00,
2017-10-16 15:12:00,85.3,73.5,29.86,NW,320,3.5,3.5,68,0.00,CLR,,0.00,WeatherDisplay:10.37,2017-10-16 19:12:00,
2017-10-16 15:17:00,85.5,72.8,29.86,NW,312,6.9,6.9,66,0.00,CLR,,0.00,WeatherDisplay:10.37,2017-10-16 19:17:00,
2017-10-16 15:22:00,85.6,73.4,29.86,North,355,5.8,5.8,67,0.00,CLR,,0.00,WeatherDisplay:10.37,2017-10-16 19:22:00,
2017-10-16 15:24:00,85.7,73.0,29.86,NNW,337,9.2,9.2,66,0.00,CLR,,0.00,WeatherDisplay:10.37,2017-10-16 19:24:00,
2017-10-16 15:29:00,86.1,72.5,29.85,NNW,327,2.3,2.3,64,0.00,CLR,,0.00,WeatherDisplay:10.37,2017-10-16 19:29:00,
2017-10-16 15:34:00,86.1,73.0,29.86,NNW,327,4.6,4.6,65,0.00,CLR,,0.00,WeatherDisplay:10.37,2017-10-16 19:34:00,
2017-10-16 15:39:00,85.4,72.3,29.86,West,266,4.6,4.6,65,0.00,CLR,,0.00,WeatherDisplay:10.37,2017-10-16 19:39:00,
2017-10-16 15:44:00,85.5,73.3,29.86,NW,306,0.0,0.0,67,0.00,CLR,,0.00,WeatherDisplay:10.37,2017-10-16 19:44:00,
2017-10-16 15:49:00,85.7,73.5,29.85,WNW,301,0.0,0.1,67,0.00,CLR,,0.00,WeatherDisplay:10.37,2017-10-16 19:49:00,
2017-10-16 15:54:00,85.6,72.0,29.85,NW,320,10.4,10.4,64,0.00,CLR,,0.00,WeatherDisplay:10.37,2017-10-16 19:54:00,
2017-10-16 15:59:00,85.4,71.4,29.85,West,281,3.5,3.5,63,0.00,CLR,,0.00,WeatherDisplay:10.37,2017-10-16 19:59:00,
2017-10-16 16:04:00,85.4,72.7,29.85,NW,311,7.0,7.0,66,0.00,CLR,,0.00,WeatherDisplay:10.37,2017-10-16 20:04:00,
2017-10-16 16:09:00,85.2,69.7,29.85,NW,311,0.0,0.0,60,0.00,CLR,,0.00,WeatherDisplay:10.37,2017-10-16 20:09:00,
2017-10-16 16:14:00,85.2,72.6,29.85,NW,313,3.0,3.0,66,0.00,CLR,,0.00,WeatherDisplay:10.37,2017-10-16 20:14:00,
2017-10-16 16:19:00,85.2,72.6,29.85,NW,317,3.5,3.5,66,0.00,CLR,,0.00,WeatherDisplay:10.37,2017-10-16 20:19:00,
2017-10-16 16:24:00,85.0,72.4,29.85,NW,316,1.2,0.0,66,0.00,CLR,,0.00,WeatherDisplay:10.37,2017-10-16 20:24:00,
2017-10-16 16:29:00,85.0,72.8,29.85,NW,310,6.9,6.9,67,0.00,CLR,,0.00,WeatherDisplay:10.37,2017-10-16 20:29:00,
2017-10-16 16:34:00,84.8,72.6,29.85,NW,310,3.5,3.5,67,0.00,CLR,,0.00,WeatherDisplay:10.37,2017-10-16 20:34:00,
2017-10-16 16:39:00,84.6,73.7,29.85,NW,309,0.0,0.3,70,0.00,CLR,,0.00,WeatherDisplay:10.37,2017-10-16 20:39:00,
2017-10-16 16:44:00,84.5,73.6,29.85,NW,308,5.8,5.8,70,0.00,CLR,,0.00,WeatherDisplay:10.37,2017-10-16 20:44:00,
2017-10-16 16:46:00,84.4,74.0,29.85,WNW,284,1.2,0.0,71,0.00,CLR,,0.00,WeatherDisplay:10.37,2017-10-16 20:46:00,
2017-10-16 16:51:00,84.4,73.5,29.85,WNW,291,4.6,4.6,70,0.00,CLR,,0.00,WeatherDisplay:10.37,2017-10-16 20:51:00,
2017-10-16 16:56:00,84.4,74.0,29.84,NNW,330,4.6,4.6,71,0.00,CLR,,0.00,WeatherDisplay:10.37,2017-10-16 20:56:00,
2017-10-16 17:01:00,84.4,74.0,29.85,NW,323,4.6,4.6,71,0.00,CLR,,0.00,WeatherDisplay:10.37,2017-10-16 21:01:00,
2017-10-16 17:06:00,84.3,73.9,29.84,WSW,244,6.0,6.0,71,0.00,CLR,,0.00,WeatherDisplay:10.37,2017-10-16 21:06:00,
2017-10-16 17:11:00,83.9,73.9,29.85,NW,312,5.8,5.8,72,0.00,CLR,,0.00,WeatherDisplay:10.37,2017-10-16 21:11:00,
2017-10-16 17:16:00,84.2,73.3,29.85,NNW,342,5.8,5.8,70,0.00,CLR,,0.00,WeatherDisplay:10.37,2017-10-16 21:16:00,
2017-10-16 17:21:00,84.2,73.3,29.85,NNW,341,0.0,0.0,70,0.00,CLR,,0.00,WeatherDisplay:10.37,2017-10-16 21:21:00,
2017-10-16 17:26:00,84.3,73.4,29.85,NNW,341,0.0,0.0,70,0.00,CLR,,0.00,WeatherDisplay:10.37,2017-10-16 21:26:00,
2017-10-16 17:31:00,84.1,73.7,29.85,NNW,331,4.0,4.0,71,0.00,CLR,,0.00,WeatherDisplay:10.37,2017-10-16 21:31:00,
2017-10-16 17:36:00,83.8,73.4,29.85,NW,323,5.8,5.8,71,0.00,CLR,,0.00,WeatherDisplay:10.37,2017-10-16 21:36:00,
2017-10-16 17:41:00,83.7,73.7,29.85,NW,323,0.0,0.0,72,0.00,CLR,,0.00,WeatherDisplay:10.37,2017-10-16 21:41:00,
2017-10-16 17:46:00,83.7,73.7,29.84,NW,323,4.0,4.0,72,0.00,CLR,,0.00,WeatherDisplay:10.37,2017-10-16 21:46:00,
2017-10-16 17:51:00,83.6,73.6,29.84,NW,323,1.0,1.2,72,0.00,CLR,,0.00,WeatherDisplay:10.37,2017-10-16 21:51:00,
2017-10-16 17:56:00,83.6,73.6,29.84,NW,323,4.0,4.0,72,0.00,CLR,,0.00,WeatherDisplay:10.37,2017-10-16 21:56:00,
2017-10-16 17:57:00,83.6,73.6,29.84,NW,323,3.5,3.5,72,0.00,CLR,,0.00,WeatherDisplay:10.37,2017-10-16 21:57:00,
2017-10-16 18:02:00,83.4,73.4,29.84,NW,321,0.0,0.0,72,0.00,CLR,,0.00,WeatherDisplay:10.37,2017-10-16 22:02:00,
2017-10-16 18:07:00,83.3,73.7,29.85,WNW,284,4.0,4.0,73,0.00,CLR,,0.00,WeatherDisplay:10.37,2017-10-16 22:07:00,
2017-10-16 18:12:00,82.9,73.4,29.85,WNW,302,0.0,0.0,73,0.00,CLR,,0.00,WeatherDisplay:10.37,2017-10-16 22:12:00,
2017-10-16 18:17:00,82.7,73.6,29.85,NW,315,1.2,1.2,74,0.00,CLR,,0.00,WeatherDisplay:10.37,2017-10-16 22:17:00,
2017-10-16 18:22:00,82.6,73.9,29.85,NW,315,0.0,0.0,75,0.00,CLR,,0.00,WeatherDisplay:10.37,2017-10-16 22:22:00,
2017-10-16 18:27:00,82.4,73.7,29.85,NW,315,0.0,0.0,75,0.00,CLR,,0.00,WeatherDisplay:10.37,2017-10-16 22:27:00,
2017-10-16 18:32:00,82.2,73.9,29.85,NW,315,0.0,0.0,76,0.00,CLR,,0.00,WeatherDisplay:10.37,2017-10-16 22:32:00,
2017-10-16 18:37:00,82.0,74.1,29.85,NW,315,0.0,0.0,77,0.00,CLR,,0.00,WeatherDisplay:10.37,2017-10-16 22:37:00,
2017-10-16 18:42:00,81.9,74.4,29.85,NW,315,0.0,0.0,78,0.00,CLR,,0.00,WeatherDisplay:10.37,2017-10-16 22:42:00,
2017-10-16 18:47:00,81.6,74.1,29.86,NW,315,0.0,0.0,78,0.00,CLR,,0.00,WeatherDisplay:10.37,2017-10-16 22:47:00,
2017-10-16 18:52:00,81.4,74.3,29.86,NW,315,0.0,0.0,79,0.00,CLR,,0.00,WeatherDisplay:10.37,2017-10-16 22:52:00,
2017-10-16 18:57:00,81.1,74.0,29.86,NW,315,0.0,0.0,79,0.00,CLR,,0.00,WeatherDisplay:10.37,2017-10-16 22:57:00,
2017-10-16 19:02:00,80.7,73.6,29.86,NW,315,0.0,0.0,79,0.00,CLR,,0.00,WeatherDisplay:10.37,2017-10-16 23:02:00,
2017-10-16 19:07:00,80.4,73.7,29.86,NW,315,0.0,0.0,80,0.00,CLR,,0.00,WeatherDisplay:10.37,2017-10-16 23:07:00,
2017-10-16 19:12:00,80.2,73.5,29.86,NW,315,0.0,0.0,80,0.00,CLR,,0.00,WeatherDisplay:10.37,2017-10-16 23:12:00,
2017-10-16 19:17:00,80.1,73.7,29.86,NW,315,0.0,0.0,81,0.00,CLR,,0.00,WeatherDisplay:10.37,2017-10-16 23:17:00,
2017-10-16 19:22:00,80.0,73.6,29.86,NW,315,0.0,0.0,81,0.00,CLR,,0.00,WeatherDisplay:10.37,2017-10-16 23:22:00,
2017-10-16 19:27:00,80.0,73.6,29.86,NW,315,0.0,0.0,81,0.00,CLR,,0.00,WeatherDisplay:10.37,2017-10-16 23:27:00,
2017-10-16 19:32:00,80.0,73.6,29.87,NW,315,0.0,0.0,81,0.00,CLR,,0.00,WeatherDisplay:10.37,2017-10-16 23:32:00,
2017-10-16 19:37:00,80.1,74.1,29.87,NW,315,0.0,0.0,82,0.00,CLR,,0.00,WeatherDisplay:10.37,2017-10-16 23:37:00,
2017-10-16 19:42:00,80.1,74.1,29.87,NW,315,0.0,0.0,82,0.00,CLR,,0.00,WeatherDisplay:10.37,2017-10-16 23:42:00,
2017-10-16 19:47:00,80.1,74.1,29.87,NW,315,0.0,0.0,82,0.00,CLR,,0.00,WeatherDisplay:10.37,2017-10-16 23:47:00,
2017-10-16 19:52:00,80.0,74.0,29.87,NW,315,0.0,0.0,82,0.00,CLR,,0.00,WeatherDisplay:10.37,2017-10-16 23:52:00,
2017-10-16 19:57:00,79.9,74.3,29.87,NW,315,0.0,0.0,83,0.00,CLR,,0.00,WeatherDisplay:10.37,2017-10-16 23:57:00,
2017-10-16 20:02:00,79.9,73.9,29.87,NW,315,0.0,0.0,82,0.00,CLR,,0.00,WeatherDisplay:10.37,2017-10-17 00:02:00,
2017-10-16 20:07:00,79.8,74.2,29.88,NW,315,0.0,0.0,83,0.00,CLR,,0.00,WeatherDisplay:10.37,2017-10-17 00:07:00,
2017-10-16 20:12:00,79.8,74.2,29.88,NW,315,0.0,0.0,83,0.00,CLR,,0.00,WeatherDisplay:10.37,2017-10-17 00:12:00,
2017-10-16 20:17:00,79.8,74.2,29.88,NW,315,0.0,0.0,83,0.00,CLR,,0.00,WeatherDisplay:10.37,2017-10-17 00:17:00,
2017-10-16 20:22:00,79.7,74.1,29.88,NW,315,0.0,0.0,83,0.00,CLR,,0.00,WeatherDisplay:10.37,2017-10-17 00:22:00,
2017-10-16 20:27:00,79.6,74.0,29.88,NW,315,0.0,0.0,83,0.00,CLR,,0.00,WeatherDisplay:10.37,2017-10-17 00:27:00,
2017-10-16 20:32:00,79.6,74.0,29.88,NW,315,0.0,0.0,83,0.00,CLR,,0.00,WeatherDisplay:10.37,2017-10-17 00:32:00,
2017-10-16 20:36:00,79.6,74.0,29.88,NW,315,0.0,0.0,83,0.00,CLR,,0.00,WeatherDisplay:10.37,2017-10-17 00:36:00,
2017-10-16 20:41:00,79.5,73.9,29.88,NW,315,0.0,0.0,83,0.00,CLR,,0.00,WeatherDisplay:10.37,2017-10-17 00:41:00,
2017-10-16 20:46:00,79.5,74.2,29.89,NW,315,0.0,0.0,84,0.00,CLR,,0.00,WeatherDisplay:10.37,2017-10-17 00:46:00,
2017-10-16 20:51:00,79.5,74.2,29.89,NW,315,0.0,0.0,84,0.00,CLR,,0.00,WeatherDisplay:10.37,2017-10-17 00:51:00,
2017-10-16 20:56:00,79.4,74.1,29.89,NW,315,0.0,0.0,84,0.00,CLR,,0.00,WeatherDisplay:10.37,2017-10-17 00:56:00,
2017-10-16 21:01:00,79.4,74.1,29.89,NW,315,0.0,0.0,84,0.00,CLR,,0.00,WeatherDisplay:10.37,2017-10-17 01:01:00,
2017-10-16 21:06:00,79.4,74.1,29.89,NW,315,0.0,0.0,84,0.00,CLR,,0.00,WeatherDisplay:10.37,2017-10-17 01:06:00,
2017-10-16 21:11:00,79.3,74.4,29.89,NW,315,0.0,0.0,85,0.00,CLR,,0.00,WeatherDisplay:10.37,2017-10-17 01:11:00,
2017-10-16 21:16:00,79.2,74.3,29.89,NW,315,0.0,0.0,85,0.00,CLR,,0.00,WeatherDisplay:10.37,2017-10-17 01:16:00,
2017-10-16 21:21:00,79.1,74.2,29.90,NW,315,0.0,0.0,85,0.00,CLR,,0.00,WeatherDisplay:10.37,2017-10-17 01:21:00,
2017-10-16 21:26:00,79.0,74.5,29.90,NW,315,0.0,0.0,86,0.00,CLR,,0.00,WeatherDisplay:10.37,2017-10-17 01:26:00,
2017-10-16 21:31:00,78.9,74.4,29.90,NW,315,0.0,0.0,86,0.00,CLR,,0.00,WeatherDisplay:10.37,2017-10-17 01:31:00,
2017-10-16 21:36:00,78.8,73.9,29.90,NW,315,0.0,0.0,85,0.00,CLR,,0.00,WeatherDisplay:10.37,2017-10-17 01:36:00,
2017-10-16 21:41:00,78.7,73.8,29.90,NW,315,0.0,0.0,85,0.00,CLR,,0.00,WeatherDisplay:10.37,2017-10-17 01:41:00,
2017-10-16 21:46:00,78.7,73.8,29.90,NW,315,0.0,0.0,85,0.00,CLR,,0.00,WeatherDisplay:10.37,2017-10-17 01:46:00,
2017-10-16 21:51:00,78.7,73.8,29.90,NW,315,0.0,0.0,85,0.00,CLR,,0.00,WeatherDisplay:10.37,2017-10-17 01:51:00,
2017-10-16 21:56:00,78.7,73.8,29.90,NW,315,0.0,0.0,85,0.00,CLR,,0.00,WeatherDisplay:10.37,2017-10-17 01:56:00,
2017-10-16 22:01:00,78.7,73.8,29.91,NW,315,0.0,0.0,85,0.00,CLR,,0.00,WeatherDisplay:10.37,2017-10-17 02:01:00,
2017-10-16 22:06:00,78.7,73.8,29.91,NW,315,0.0,0.0,85,0.00,CLR,,0.00,WeatherDisplay:10.37,2017-10-17 02:06:00,
2017-10-16 22:11:00,78.6,73.7,29.91,NW,315,0.0,0.0,85,0.00,CLR,,0.00,WeatherDisplay:10.37,2017-10-17 02:11:00,
2017-10-16 22:16:00,78.7,73.8,29.91,NW,315,0.0,0.0,85,0.00,CLR,,0.00,WeatherDisplay:10.37,2017-10-17 02:16:00,
2017-10-16 22:21:00,78.5,73.6,29.91,NW,315,0.0,0.0,85,0.00,CLR,,0.00,WeatherDisplay:10.37,2017-10-17 02:21:00,
2017-10-16 22:22:00,78.5,73.6,29.91,NW,315,0.0,0.0,85,0.00,CLR,,0.00,WeatherDisplay:10.37,2017-10-17 02:22:00,
2017-10-16 22:27:00,78.5,73.6,29.91,NW,315,0.0,0.0,85,0.00,CLR,,0.00,WeatherDisplay:10.37,2017-10-17 02:27:00,
2017-10-16 22:32:00,78.5,74.0,29.91,NW,315,0.0,0.0,86,0.00,CLR,,0.00,WeatherDisplay:10.37,2017-10-17 02:32:00,
2017-10-16 22:37:00,78.4,73.9,29.91,NW,315,0.0,0.0,86,0.00,CLR,,0.00,WeatherDisplay:10.37,2017-10-17 02:37:00,
2017-10-16 22:42:00,78.2,73.7,29.92,NW,315,0.0,0.0,86,0.00,CLR,,0.00,WeatherDisplay:10.37,2017-10-17 02:42:00,
2017-10-16 22:47:00,78.1,73.6,29.92,NW,315,0.0,0.0,86,0.00,CLR,,0.00,WeatherDisplay:10.37,2017-10-17 02:47:00,